Главная страница
METAR-TAF:

METAR-TAF

Аэропорты :

Фор-де-Франс, Мартиника

широта: 14-36N, долгота: 061-00W, высота над уровнем моря: 5 м

Текущие метеонаблюдения

Эта сводка был подготовлена 19 минут назад, в 09:00 UTC
Ветер 10 Узел от восточный
Температура 25°C
Влажность 89%
Давление 1013 hPa
Видимость 10 км и более
небольшая облачность на высоте 1900 фута
Рассеянная облачность на высоте 3500 фута
Рассеянная облачность на высоте 4600 фута

METAR: TFFF 160900Z AUTO 10010KT 9999 FEW019 BKN035 BKN046 25/23 Q1013 TEMPO 4000 SHRA FEW018TCU

Время: 05:19 (09:19 UTC)

Прогноз

Эта сводка был подготовлена 4 часа и 19 минут назад, в 05:00 UTC
Прогноз действительный с 16-го 06 UTC до 17-го 06 UTC
Ветер 7 Узел от восточный
Видимость 10 км и более
Отдельные облака на высоте 2800 фута
временами
С 16-го 06 UTC до 16-го 18 UTC
Видимость: 4000 м
небольшая облачность на высоте 1800 фута, мощно-кучевые.
ливневые дожди

TAF: TFFF 160500Z 1606/1706 09007KT 9999 SCT028 TEMPO 1606/1618 4000 SHRA FEW018TCU

Метеонаблюдения и прогнозы для более 4000 аэропортов (сводки METAR и TAF).

Имеющиеся станции представлены на карте желтыми и красными точками.

Чтобы увидеть название станции, наведите на нее мышь.

Затем щелкните, чтобы увидеть метеонаблюдения и метеопрогнозы.

Управление картой: чтобы увеличить масштаб, щелкните зеленые кнопки с черным крестиком; чтобы уменьшить масштаб, щелкните зеленую кнопку с тире; для просмотра соседних карт щелкайте зеленые стрелки.


METAR-TAF: